createdAt,value
2022-12-26T00:02:00.716Z,6.40
2022-12-26T00:04:49.253Z,5.80
2022-12-26T00:07:17.908Z,5.30
2022-12-26T00:09:46.808Z,5.10
2022-12-26T00:12:15.485Z,5.00
2022-12-26T00:14:44.173Z,5.20
2022-12-26T00:17:12.861Z,6.10
2022-12-26T00:19:41.561Z,5.20
2022-12-26T00:22:10.270Z,5.50
2022-12-26T00:24:39.029Z,5.50
2022-12-26T00:27:07.915Z,5.40
2022-12-26T00:29:36.811Z,4.60
2022-12-26T00:32:05.498Z,6.10
2022-12-26T00:34:34.487Z,6.60
2022-12-26T00:37:03.688Z,6.10
2022-12-26T00:39:32.476Z,5.90
2022-12-26T00:42:01.190Z,7.60
2022-12-26T00:44:29.876Z,7.30
2022-12-26T00:46:58.589Z,5.70
2022-12-26T00:49:27.428Z,13.10
2022-12-26T00:51:55.915Z,5.70
2022-12-26T00:54:24.496Z,5.40
2022-12-26T00:56:53.083Z,7.60
2022-12-26T00:59:21.868Z,5.50
2022-12-26T01:01:50.709Z,5.10
2022-12-26T01:04:19.653Z,5.30
2022-12-26T01:06:48.339Z,8.70
2022-12-26T01:09:17.025Z,6.10
2022-12-26T01:11:46.919Z,6.50
2022-12-26T01:14:18.340Z,5.70
2022-12-26T01:16:48.004Z,6.20
2022-12-26T01:19:16.797Z,9.60
2022-12-26T01:21:45.269Z,7.40
2022-12-26T01:24:14.264Z,5.70
2022-12-26T01:26:42.955Z,4.70
2022-12-26T01:29:11.436Z,5.10
2022-12-26T01:31:40.084Z,5.00
2022-12-26T01:34:09.567Z,5.00
2022-12-26T01:36:38.121Z,6.60
2022-12-26T01:39:06.898Z,5.00
2022-12-26T01:41:35.687Z,4.70
2022-12-26T01:44:55.104Z,5.10
2022-12-26T01:47:34.614Z,5.10
2022-12-26T01:50:05.124Z,4.40
2022-12-26T01:52:44.222Z,4.50
2022-12-26T01:55:16.419Z,4.90
2022-12-26T01:57:53.316Z,4.60
2022-12-26T02:00:21.902Z,4.20
2022-12-26T02:03:09.306Z,6.40
2022-12-26T02:05:39.653Z,4.70
2022-12-26T02:08:22.181Z,5.80
2022-12-26T02:11:32.117Z,4.30
2022-12-26T02:14:01.585Z,4.50
2022-12-26T02:16:30.392Z,4.50
2022-12-26T02:18:59.215Z,5.00
2022-12-26T02:22:03.221Z,4.70
2022-12-26T02:25:05.499Z,5.20
2022-12-26T02:28:12.474Z,4.70
2022-12-26T02:31:36.585Z,4.40
2022-12-26T02:34:32.282Z,4.50
2022-12-26T02:37:31.692Z,6.70
2022-12-26T02:40:03.203Z,4.30
2022-12-26T02:42:37.869Z,4.50
2022-12-26T02:45:42.723Z,5.80
2022-12-26T02:48:30.954Z,5.60
2022-12-26T02:52:07.832Z,4.40
2022-12-26T02:55:18.411Z,5.90
2022-12-26T02:58:26.517Z,5.30
2022-12-26T03:01:19.889Z,4.70
2022-12-26T03:04:09.972Z,4.70
2022-12-26T03:07:01.603Z,11.50
2022-12-26T03:09:53.941Z,6.20
2022-12-26T03:13:11.374Z,4.30
2022-12-26T03:16:04.736Z,3.90
2022-12-26T03:18:57.164Z,3.90
2022-12-26T03:21:35.383Z,4.30
2022-12-26T03:24:05.095Z,5.60
2022-12-26T03:26:41.254Z,4.40
2022-12-26T03:29:41.892Z,3.80
2022-12-26T03:32:13.061Z,4.30
2022-12-26T03:34:44.895Z,5.40
2022-12-26T03:37:19.422Z,4.00
2022-12-26T03:40:28.046Z,4.00
2022-12-26T03:43:30.729Z,3.60
2022-12-26T03:46:52.054Z,3.70
2022-12-26T03:49:52.994Z,3.90
2022-12-26T03:53:18.617Z,4.40
2022-12-26T03:56:42.805Z,5.30
2022-12-26T03:59:36.410Z,5.00
2022-12-26T04:02:28.404Z,5.70
2022-12-26T04:05:18.803Z,4.50
2022-12-26T04:08:18.725Z,4.30
2022-12-26T04:11:14.155Z,4.00
2022-12-26T04:14:32.799Z,4.10
2022-12-26T04:17:47.261Z,4.40
2022-12-26T04:21:46.266Z,3.70
2022-12-26T04:24:45.568Z,3.90
2022-12-26T04:27:37.297Z,3.50
2022-12-26T04:30:26.155Z,4.20
2022-12-26T04:33:22.407Z,3.80
2022-12-26T04:36:20.255Z,3.90
2022-12-26T04:39:23.555Z,3.40
2022-12-26T04:42:12.928Z,3.60
2022-12-26T04:44:43.250Z,3.70
2022-12-26T04:47:12.266Z,3.80
2022-12-26T04:50:04.588Z,3.50
2022-12-26T04:52:51.708Z,3.40
2022-12-26T04:55:20.717Z,4.30
2022-12-26T04:57:49.191Z,3.40
2022-12-26T05:00:18.214Z,4.00
2022-12-26T05:03:05.428Z,3.40
2022-12-26T05:05:59.790Z,2.90
2022-12-26T05:08:53.560Z,3.40
2022-12-26T05:11:22.862Z,3.40
2022-12-26T05:13:56.158Z,3.30
2022-12-26T05:16:44.917Z,3.00
2022-12-26T05:19:35.328Z,3.30
2022-12-26T05:22:24.090Z,3.70
2022-12-26T05:25:11.815Z,2.80
2022-12-26T05:28:03.328Z,2.70
2022-12-26T05:30:31.922Z,3.00
2022-12-26T05:33:19.129Z,3.00
2022-12-26T05:35:48.122Z,3.00
2022-12-26T05:38:17.022Z,3.20
2022-12-26T05:40:45.805Z,3.60
2022-12-26T05:43:14.288Z,3.10
2022-12-26T05:45:42.973Z,2.70
2022-12-26T05:48:11.669Z,2.80
2022-12-26T05:50:40.552Z,3.10
2022-12-26T05:53:09.140Z,2.90
2022-12-26T05:55:37.836Z,2.50
2022-12-26T05:58:06.926Z,3.00
2022-12-26T06:00:35.527Z,3.00
2022-12-26T06:03:04.355Z,4.10
2022-12-26T06:05:33.388Z,3.50
2022-12-26T06:08:01.977Z,4.20
2022-12-26T06:10:30.659Z,3.90
2022-12-26T06:13:01.851Z,3.40
2022-12-26T06:15:30.594Z,2.80
2022-12-26T06:17:59.178Z,2.10
2022-12-26T06:20:28.069Z,2.30
2022-12-26T06:22:56.559Z,2.50
2022-12-26T06:25:25.457Z,2.20
2022-12-26T06:27:53.927Z,2.30
2022-12-26T06:30:22.627Z,2.70
2022-12-26T06:32:51.207Z,2.20
2022-12-26T06:35:21.870Z,2.20
2022-12-26T06:37:50.414Z,2.30
2022-12-26T06:40:18.998Z,2.00
2022-12-26T06:42:47.485Z,2.80
2022-12-26T06:45:16.275Z,2.20
2022-12-26T06:47:46.597Z,2.70
2022-12-26T06:50:15.179Z,1.80
2022-12-26T06:52:43.761Z,2.30
2022-12-26T06:55:12.365Z,2.00
2022-12-26T06:57:40.931Z,1.90
2022-12-26T07:00:13.106Z,2.30
2022-12-26T07:02:41.733Z,1.80
2022-12-26T07:05:10.575Z,1.90
2022-12-26T07:07:39.162Z,2.00
2022-12-26T07:10:08.874Z,2.10
2022-12-26T07:12:37.454Z,1.80
2022-12-26T07:15:10.255Z,1.80
2022-12-26T07:17:38.822Z,2.30
2022-12-26T07:20:09.381Z,1.90
2022-12-26T07:22:38.611Z,1.80
2022-12-26T07:25:07.955Z,1.90
2022-12-26T07:27:36.447Z,1.70
2022-12-26T07:30:06.015Z,1.70
2022-12-26T07:32:34.550Z,2.10
2022-12-26T07:35:03.423Z,2.00
2022-12-26T07:37:32.006Z,1.70
2022-12-26T07:40:00.601Z,1.70
2022-12-26T07:42:29.279Z,1.90
2022-12-26T07:44:57.962Z,1.70
2022-12-26T07:47:26.545Z,2.20
2022-12-26T07:49:55.143Z,1.70
2022-12-26T07:52:23.715Z,2.10
2022-12-26T07:54:52.296Z,1.70
2022-12-26T07:57:47.418Z,1.80
2022-12-26T08:00:11.107Z,1.80
2022-12-26T08:02:43.009Z,2.00
2022-12-26T08:05:12.033Z,1.90
2022-12-26T08:07:40.626Z,2.10
2022-12-26T08:10:10.194Z,1.70
2022-12-26T08:12:38.711Z,2.00
2022-12-26T08:15:08.713Z,1.60
2022-12-26T08:17:37.318Z,1.70
2022-12-26T08:20:06.979Z,2.00
2022-12-26T08:22:35.503Z,2.10
2022-12-26T08:25:05.143Z,2.10
2022-12-26T08:27:34.325Z,2.10
2022-12-26T08:30:03.411Z,1.50
2022-12-26T08:32:31.988Z,1.80
2022-12-26T08:35:00.583Z,2.00
2022-12-26T08:37:30.086Z,1.70
2022-12-26T08:39:58.567Z,1.60
2022-12-26T08:42:27.256Z,1.50
2022-12-26T08:44:56.045Z,1.60
2022-12-26T08:47:27.497Z,1.50
2022-12-26T08:49:56.078Z,1.80
2022-12-26T08:52:25.172Z,2.10
2022-12-26T08:54:53.964Z,1.80
2022-12-26T08:57:22.546Z,1.90
2022-12-26T08:59:51.231Z,1.80
2022-12-26T09:02:20.063Z,1.70
2022-12-26T09:04:49.025Z,1.70
2022-12-26T09:07:18.526Z,1.80
2022-12-26T09:09:48.334Z,1.70
2022-12-26T09:12:16.917Z,1.90
2022-12-26T09:14:50.180Z,1.70
2022-12-26T09:17:19.009Z,1.80
2022-12-26T09:19:47.792Z,2.20
2022-12-26T09:22:35.597Z,1.70
2022-12-26T09:25:05.142Z,1.80
2022-12-26T09:27:33.819Z,2.20
2022-12-26T09:30:02.515Z,1.70
2022-12-26T09:32:35.808Z,2.20
2022-12-26T09:35:05.258Z,2.00
2022-12-26T09:37:34.299Z,2.30
2022-12-26T09:40:04.452Z,2.70
2022-12-26T09:43:24.619Z,2.30
2022-12-26T09:46:07.500Z,2.50
2022-12-26T09:48:49.433Z,2.90
2022-12-26T09:51:17.914Z,3.40
2022-12-26T09:53:47.833Z,2.80
2022-12-26T09:57:01.133Z,3.50
2022-12-26T09:59:18.887Z,2.60
2022-12-26T10:01:50.951Z,2.40
2022-12-26T10:04:30.151Z,2.40
2022-12-26T10:07:15.470Z,2.90
2022-12-26T10:10:32.905Z,2.40
2022-12-26T10:13:22.172Z,2.70
2022-12-26T10:16:03.487Z,2.70
2022-12-26T10:18:44.230Z,2.70
2022-12-26T10:22:06.160Z,2.50
2022-12-26T10:24:37.682Z,2.20
2022-12-26T10:27:15.963Z,2.20
2022-12-26T10:30:02.423Z,2.20
2022-12-26T10:33:01.871Z,2.00
2022-12-26T10:35:34.040Z,2.70
2022-12-26T10:38:15.999Z,2.50
2022-12-26T10:40:50.669Z,3.60
2022-12-26T10:43:31.603Z,3.00
2022-12-26T10:46:32.268Z,2.80
2022-12-26T10:49:00.932Z,2.90
2022-12-26T10:51:29.817Z,2.50
2022-12-26T10:53:58.405Z,2.70
2022-12-26T10:56:27.885Z,2.50
2022-12-26T10:59:04.042Z,2.90
2022-12-26T11:01:37.825Z,2.40
2022-12-26T11:04:52.814Z,2.70
2022-12-26T11:07:13.447Z,2.60
2022-12-26T11:09:45.979Z,2.80
2022-12-26T11:12:50.457Z,2.50
2022-12-26T11:15:41.686Z,2.50
2022-12-26T11:18:19.522Z,2.90
2022-12-26T11:20:50.030Z,2.10
2022-12-26T11:23:30.663Z,2.10
2022-12-26T11:26:02.263Z,2.10
2022-12-26T11:28:34.893Z,2.10
2022-12-26T11:31:08.259Z,2.70
2022-12-26T11:33:45.686Z,2.10
2022-12-26T11:36:17.237Z,2.20
2022-12-26T11:38:53.503Z,2.10
2022-12-26T11:41:36.639Z,2.20
2022-12-26T11:44:11.613Z,2.20
2022-12-26T11:47:01.653Z,2.00
2022-12-26T11:49:40.427Z,2.00
2022-12-26T11:52:38.057Z,2.20
2022-12-26T11:55:35.604Z,2.10
2022-12-26T11:58:07.035Z,2.00
2022-12-26T12:00:41.612Z,1.70
2022-12-26T12:03:26.365Z,1.90
2022-12-26T12:06:30.255Z,1.80
2022-12-26T12:09:32.838Z,1.70
2022-12-26T12:12:39.310Z,1.90
2022-12-26T12:15:44.661Z,1.70
2022-12-26T12:18:28.189Z,1.70
2022-12-26T12:21:13.571Z,4.50
2022-12-26T12:24:27.003Z,2.70
2022-12-26T12:27:35.336Z,2.00
2022-12-26T12:30:20.141Z,1.90
2022-12-26T12:33:07.210Z,1.40
2022-12-26T12:36:03.751Z,1.50
2022-12-26T12:39:00.691Z,1.50
2022-12-26T12:42:18.329Z,1.60
2022-12-26T12:45:20.703Z,2.30
2022-12-26T12:48:13.976Z,2.10
2022-12-26T12:50:53.060Z,1.90
2022-12-26T12:53:54.453Z,2.60
2022-12-26T12:56:50.285Z,2.90
2022-12-26T12:59:36.587Z,2.40
2022-12-26T13:02:22.232Z,2.30
2022-12-26T13:05:06.406Z,3.20
2022-12-26T13:07:46.985Z,1.90
2022-12-26T13:10:35.934Z,1.90
2022-12-26T13:13:39.951Z,2.10
2022-12-26T13:16:20.175Z,2.90
2022-12-26T13:19:26.739Z,2.40
2022-12-26T13:22:01.611Z,2.10
2022-12-26T13:24:43.724Z,1.90
2022-12-26T13:27:28.174Z,2.10
2022-12-26T13:29:56.757Z,2.80
2022-12-26T13:32:28.575Z,2.10
2022-12-26T13:35:02.361Z,1.80
2022-12-26T13:37:39.937Z,2.00
2022-12-26T13:40:11.678Z,1.70
2022-12-26T13:43:04.951Z,1.60
2022-12-26T13:45:42.815Z,2.00
2022-12-26T13:48:17.676Z,1.70
2022-12-26T13:51:17.803Z,1.80
2022-12-26T13:53:59.907Z,1.30
2022-12-26T13:56:28.325Z,1.20
2022-12-26T13:59:32.628Z,1.80
2022-12-26T14:02:20.033Z,2.30
2022-12-26T14:05:11.871Z,1.70
2022-12-26T14:07:57.880Z,1.70
2022-12-26T14:11:07.195Z,1.90
2022-12-26T14:14:00.048Z,1.80
2022-12-26T14:16:40.784Z,1.60
2022-12-26T14:19:56.610Z,2.70
2022-12-26T14:22:34.099Z,2.10
2022-12-26T14:25:23.994Z,2.00
2022-12-26T14:28:37.228Z,2.00
2022-12-26T14:31:22.504Z,2.00
2022-12-26T14:34:24.356Z,1.80
2022-12-26T14:37:44.149Z,2.40
2022-12-26T14:40:27.903Z,2.50
2022-12-26T14:43:41.842Z,3.00
2022-12-26T14:46:53.422Z,2.20
2022-12-26T14:49:38.494Z,1.20
2022-12-26T14:52:25.238Z,1.40
2022-12-26T14:54:55.912Z,1.50
2022-12-26T14:57:46.812Z,1.40
2022-12-26T15:00:21.578Z,1.90
2022-12-26T15:02:59.656Z,1.80
2022-12-26T15:05:39.841Z,2.40
2022-12-26T15:08:47.646Z,2.70
2022-12-26T15:11:37.733Z,2.60
2022-12-26T15:14:33.655Z,2.70
2022-12-26T15:17:35.109Z,2.60
2022-12-26T15:20:13.016Z,4.10
2022-12-26T15:23:06.595Z,3.30
2022-12-26T15:25:50.328Z,2.70
2022-12-26T15:28:39.083Z,2.70
2022-12-26T15:31:42.911Z,3.20
2022-12-26T15:34:11.595Z,3.50
2022-12-26T15:36:53.678Z,3.40
2022-12-26T15:39:56.566Z,2.60
2022-12-26T15:43:11.436Z,2.30
2022-12-26T15:45:48.750Z,2.60
2022-12-26T15:48:49.155Z,2.10
2022-12-26T15:51:56.082Z,2.70
2022-12-26T15:55:10.397Z,2.20
2022-12-26T15:57:56.399Z,3.20
2022-12-26T16:00:40.539Z,3.10
2022-12-26T16:03:51.411Z,2.10
2022-12-26T16:06:41.919Z,2.80
2022-12-26T16:09:39.274Z,2.20
2022-12-26T16:12:26.861Z,2.20
2022-12-26T16:15:10.461Z,2.20
2022-12-26T16:17:41.365Z,2.50
2022-12-26T16:20:43.671Z,2.90
2022-12-26T16:23:25.213Z,3.40
2022-12-26T16:25:57.007Z,2.70
2022-12-26T16:28:43.717Z,3.00
2022-12-26T16:31:21.842Z,3.10
2022-12-26T16:33:53.644Z,2.40
2022-12-26T16:36:26.666Z,2.30
2022-12-26T16:38:55.966Z,2.50
2022-12-26T16:41:31.273Z,2.60
2022-12-26T16:44:30.848Z,2.10
2022-12-26T16:47:13.075Z,1.80
2022-12-26T16:49:43.643Z,2.20
2022-12-26T16:52:42.104Z,2.80
2022-12-26T16:55:37.559Z,3.90
2022-12-26T16:58:29.122Z,2.70
2022-12-26T17:01:17.533Z,2.50
2022-12-26T17:04:02.497Z,1.90
2022-12-26T17:06:46.029Z,1.70
2022-12-26T17:09:17.093Z,1.60
2022-12-26T17:11:59.608Z,1.70
2022-12-26T17:14:46.268Z,1.70
2022-12-26T17:17:23.691Z,1.70
2022-12-26T17:19:56.488Z,1.80
2022-12-26T17:22:37.312Z,2.90
2022-12-26T17:25:18.007Z,2.40
2022-12-26T17:27:49.791Z,1.70
2022-12-26T17:30:32.582Z,2.20
2022-12-26T17:33:14.684Z,1.90
2022-12-26T17:36:44.870Z,2.30
2022-12-26T17:38:39.092Z,1.80
2022-12-26T17:41:09.875Z,1.90
2022-12-26T17:43:41.345Z,1.50
2022-12-26T17:46:15.060Z,1.80
2022-12-26T17:48:44.191Z,1.70
2022-12-26T17:51:19.069Z,1.50
2022-12-26T17:53:51.133Z,1.80
2022-12-26T17:56:24.598Z,1.30
2022-12-26T17:58:53.277Z,1.70
2022-12-26T18:01:22.496Z,1.10
2022-12-26T18:03:53.107Z,1.10
2022-12-26T18:06:28.505Z,1.20
2022-12-26T18:08:58.559Z,1.40
2022-12-26T18:11:27.253Z,1.00
2022-12-26T18:13:56.038Z,0.90
2022-12-26T18:16:28.480Z,1.00
2022-12-26T18:18:57.208Z,1.40
2022-12-26T18:21:25.786Z,1.80
2022-12-26T18:23:54.377Z,1.20
2022-12-26T18:26:29.443Z,1.40
2022-12-26T18:28:58.913Z,1.30
2022-12-26T18:31:28.340Z,1.40
2022-12-26T18:33:57.108Z,1.50
2022-12-26T18:36:33.166Z,1.70
2022-12-26T18:39:02.699Z,1.60
2022-12-26T18:41:31.779Z,2.00
2022-12-26T18:44:00.250Z,1.60
2022-12-26T18:46:30.158Z,1.50
2022-12-26T18:48:58.743Z,1.70
2022-12-26T18:51:30.914Z,5.10
2022-12-26T18:53:59.735Z,3.50
2022-12-26T18:56:28.292Z,3.10
2022-12-26T18:58:58.178Z,2.00
2022-12-26T19:01:27.351Z,1.80
2022-12-26T19:03:56.440Z,2.00
2022-12-26T19:06:29.310Z,1.50
2022-12-26T19:08:58.804Z,3.30
2022-12-26T19:11:27.741Z,1.90
2022-12-26T19:13:56.364Z,1.40
2022-12-26T19:16:25.175Z,1.00
2022-12-26T19:18:53.943Z,1.60
2022-12-26T19:21:23.625Z,1.30
2022-12-26T19:23:52.447Z,1.30
2022-12-26T19:26:22.201Z,0.90
2022-12-26T19:28:56.228Z,1.20
2022-12-26T19:31:24.777Z,2.80
2022-12-26T19:33:53.549Z,2.50
2022-12-26T19:36:22.225Z,1.70
2022-12-26T19:38:54.430Z,1.30
2022-12-26T19:41:23.051Z,1.50
2022-12-26T19:44:02.142Z,1.60
2022-12-26T19:46:30.695Z,1.80
2022-12-26T19:48:59.383Z,1.70
2022-12-26T19:51:28.068Z,1.90
2022-12-26T19:53:56.857Z,2.50
2022-12-26T19:56:28.468Z,8.90
2022-12-26T19:58:57.405Z,12.50
2022-12-26T20:01:30.270Z,9.90
2022-12-26T20:04:02.219Z,4.70
2022-12-26T20:06:33.484Z,3.10
2022-12-26T20:09:08.961Z,2.00
2022-12-26T20:11:43.334Z,2.50
2022-12-26T20:14:17.131Z,1.30
2022-12-26T20:17:06.723Z,2.30
2022-12-26T20:19:37.108Z,3.30
2022-12-26T20:22:07.288Z,8.20
2022-12-26T20:24:36.208Z,10.90
2022-12-26T20:27:05.092Z,7.70
2022-12-26T20:29:33.679Z,23.70
2022-12-26T20:32:02.687Z,9.40
2022-12-26T20:34:31.463Z,6.00
2022-12-26T20:37:00.243Z,9.70
2022-12-26T20:39:29.044Z,4.60
2022-12-26T20:41:57.921Z,2.80
2022-12-26T20:44:26.923Z,2.10
2022-12-26T20:46:55.507Z,2.30
2022-12-26T20:49:24.293Z,1.40
2022-12-26T20:51:53.000Z,2.30
2022-12-26T20:54:22.784Z,5.40
2022-12-26T20:56:51.583Z,1.70
2022-12-26T20:59:20.365Z,1.60
2022-12-26T21:01:49.244Z,1.40
2022-12-26T21:04:22.621Z,1.60
2022-12-26T21:06:52.377Z,1.80
2022-12-26T21:09:21.055Z,1.10
2022-12-26T21:11:50.458Z,1.50
2022-12-26T21:14:21.394Z,3.10
2022-12-26T21:16:57.108Z,1.40
2022-12-26T21:19:29.672Z,2.00
2022-12-26T21:21:58.412Z,2.30
2022-12-26T21:24:31.850Z,2.90
2022-12-26T21:27:00.700Z,1.40
2022-12-26T21:29:32.993Z,1.70
2022-12-26T21:32:03.712Z,7.50
2022-12-26T21:34:34.059Z,4.60
2022-12-26T21:37:21.474Z,4.00
2022-12-26T21:39:50.878Z,0.70
2022-12-26T21:42:19.859Z,2.00
2022-12-26T21:44:48.447Z,2.90
2022-12-26T21:47:17.231Z,1.20
2022-12-26T21:49:45.818Z,0.60
2022-12-26T21:52:14.604Z,0.80
2022-12-26T21:55:01.934Z,2.20
2022-12-26T21:57:35.328Z,1.00
2022-12-26T22:00:05.106Z,2.20
2022-12-26T22:02:57.213Z,2.00
2022-12-26T22:05:29.124Z,1.70
2022-12-26T22:08:00.982Z,1.60
2022-12-26T22:10:52.318Z,2.00
2022-12-26T22:13:23.819Z,1.80
2022-12-26T22:16:05.664Z,2.30
2022-12-26T22:18:39.375Z,1.00
2022-12-26T22:21:15.606Z,0.90
2022-12-26T22:23:45.922Z,1.70
2022-12-26T22:26:15.603Z,2.10
2022-12-26T22:28:45.278Z,2.60
2022-12-26T22:31:23.008Z,3.90
2022-12-26T22:33:57.184Z,2.70
2022-12-26T22:36:27.831Z,2.10
2022-12-26T22:38:58.660Z,2.20
2022-12-26T22:41:29.054Z,3.00
2022-12-26T22:43:57.675Z,1.60
2022-12-26T22:46:26.406Z,1.50
2022-12-26T22:48:55.161Z,1.20
2022-12-26T22:51:26.174Z,0.70
2022-12-26T22:54:01.113Z,0.80
2022-12-26T22:56:30.348Z,1.30
2022-12-26T22:59:03.513Z,0.80
2022-12-26T23:01:32.744Z,1.60
2022-12-26T23:04:02.330Z,1.00
2022-12-26T23:06:36.428Z,1.60
2022-12-26T23:09:12.495Z,2.20
2022-12-26T23:11:42.341Z,1.10
2022-12-26T23:14:13.346Z,2.90
2022-12-26T23:16:52.793Z,1.20
2022-12-26T23:20:07.763Z,1.70
2022-12-26T23:22:36.859Z,2.30
2022-12-26T23:25:06.258Z,1.10
2022-12-26T23:27:53.482Z,1.70
2022-12-26T23:30:23.505Z,2.00
2022-12-26T23:32:53.725Z,2.20
2022-12-26T23:35:23.719Z,1.20
2022-12-26T23:37:52.427Z,0.80
2022-12-26T23:40:22.835Z,1.30
2022-12-26T23:42:51.439Z,2.10
2022-12-26T23:45:20.338Z,2.60
2022-12-26T23:47:49.020Z,2.50
2022-12-26T23:50:18.662Z,3.30
2022-12-26T23:52:47.414Z,2.40
2022-12-26T23:55:16.147Z,2.30
2022-12-26T23:57:44.790Z,1.80
